Flight Track Log - Related Links

Times and Time Zones

All times are in EDT time to prevent confusion due to time zone crossing. See the UAL481 flight status page for this flight to view local times or setup timezone preferences in your user account.

Time Position Orientation Groundspeed Altitude Reporting Facility
EDT Latitude Longitude Course Direction KTS MPH feet Rate Location/Type
Wed 06:07:24 PM 42.7631 -73.8061 283° West 129 148 1,200  Level Boston Center
Wed 06:08:49 PM 42.8250 -73.8583 328° Northwest 214 246 4,000 2,478 Climbing Boston Center
Wed 06:09:42 PM 42.8703 -73.9133 318° Northwest 243 280 6,900 3,292 Climbing Boston Center
Wed 06:10:00 PM 42.8029 -74.1659 284° West  Level FlightAware Approximate
Wed 06:10:42 PM 42.9236 -73.9797 318° Northwest 251 289 10,200  Level Boston Center
Wed 06:11:00 PM 42.8254 -74.2897 284° West  Level FlightAware Approximate
Wed 06:11:42 PM 42.9869 -74.0608 317° Northwest 278 320 12,400  Level Boston Center
Wed 06:12:00 PM 42.8468 -74.4140 283° West  Level FlightAware Approximate
Wed 06:12:42 PM 43.0567 -74.1508 317° Northwest 326 375 14,700  Level Boston Center
Wed 06:13:42 PM 43.0647 -74.2903 275° West 345 397 17,400 2,350 Climbing Boston Center
Wed 06:14:42 PM 43.0708 -74.4211 274° West 363 418 19,400 2,100 Climbing Boston Center
Wed 06:15:42 PM 43.0808 -74.5636 276° West 375 432 21,600 1,864 Climbing Boston Center
Wed 06:16:54 PM 43.0883 -74.7144 274° West 387 445 23,500 1,773 Climbing Boston Center
Wed 06:17:54 PM 43.0972 -74.8942 274° West 392 451 25,500 1,750 Climbing Boston Center
Wed 06:18:54 PM 43.1042 -75.0481 274° West 403 464 27,000 1,700 Climbing Boston Center
Wed 06:19:54 PM 43.1150 -75.2050 275° West 408 470 28,900 1,700 Climbing Boston Center
Wed 06:20:54 PM 43.1217 -75.3589 273° West 408 470 30,400 1,600 Climbing Boston Center
Wed 06:21:54 PM 43.1300 -75.5128 274° West 408 470 32,100 1,600 Climbing Boston Center
Wed 06:22:54 PM 43.1383 -75.6642 274° West 408 470 33,600 950 Climbing Boston Center
Wed 06:23:54 PM 43.1425 -75.8125 272° West 403 464 34,000 200 Climbing Boston Center
Wed 06:24:54 PM 43.1506 -75.9608 274° West 403 464 34,000 300 Level Boston Center
Wed 06:25:54 PM 43.1564 -76.1092 273° West 403 464 34,600 500 Climbing Boston Center
Wed 06:26:54 PM 43.1597 -76.2575 272° West 403 464 35,000 200 Climbing Boston Center
Wed 06:27:54 PM 43.2031 -76.3942 294° West 397 457 35,000 136 Level Boston Center
Wed 06:29:06 PM 43.3167 -76.5000 326° Northwest 430 495 35,300 478 Climbing Toronto Center
Wed 06:29:47 PM 43.3667 -76.5850 309° West 383 441 35,900 891 Climbing Cleveland Center
Wed 06:30:47 PM 43.3864 -76.7381 280° West 389 448 36,800 1,000 Climbing Cleveland Center
Wed 06:31:47 PM 43.3747 -76.8903 264° West 383 441 37,900 550 Climbing Cleveland Center
Wed 06:32:47 PM 43.3667 -77.0333 266° West 383 441 37,900 50 Level Cleveland Center
Wed 06:33:47 PM 43.3289 -77.1669 249° West 383 441 38,000 50 Climbing Cleveland Center
Wed 06:34:47 PM 43.2594 -77.2878 232° Southwest 383 441 38,000  Level Cleveland Center
Wed 06:35:47 PM 43.1897 -77.4053 231° Southwest 395 455 38,000  Level Cleveland Center
Wed 06:36:47 PM 43.1222 -77.5256 232° Southwest 401 461 38,000  Level Cleveland Center
Wed 06:37:47 PM 43.0544 -77.6425 232° Southwest 401 461 38,000  Level Cleveland Center
Wed 06:38:47 PM 43.0286 -77.7856 256° West 385 443 38,000  Level Cleveland Center
Wed 06:39:47 PM 43.0322 -77.9361 272° West 385 443 38,000  Level Cleveland Center
Wed 06:40:47 PM 43.0356 -78.0864 272° West 395 455 38,000  Level Cleveland Center
Wed 06:41:47 PM 43.0386 -78.2369 272° West 395 455 38,000  Level Cleveland Center
Wed 06:42:47 PM 43.0394 -78.3847 270° West 395 455 38,000  Level Cleveland Center
Wed 06:43:47 PM 43.0403 -78.5381 270° West 401 461 38,000  Level Cleveland Center
Wed 06:44:47 PM 43.0428 -78.6856 271° West 401 461 38,000  Level Cleveland Center
Wed 06:45:47 PM 43.0456 -78.8531 271° West 407 468 38,000  Level Cleveland Center
Wed 06:46:47 PM 43.0456 -79.0039 270° West 402 463 38,000  Level Cleveland Center
Wed 06:47:47 PM 43.0475 -79.1542 271° West 402 463 38,000  Level Cleveland Center
Wed 06:49:07 PM 43.0667 -79.3167 279° West 400 460 38,000 -86 Level Toronto Center
Wed 06:50:07 PM 43.1000 -79.4667 287° West 390 449 37,800 -800 Descending Toronto Center
Wed 06:51:07 PM 43.1500 -79.6167 295° West 390 449 36,400 -900 Descending Toronto Center
Wed 06:52:07 PM 43.1833 -79.7500 289° West 390 449 36,000 -200 Descending Toronto Center
Wed 06:53:07 PM 43.2167 -79.8833 289° West 380 437 36,000  Level Toronto Center
Wed 06:54:07 PM 43.2500 -80.0167 289° West 380 437 36,000  Level Toronto Center
Wed 06:55:07 PM 43.2833 -80.1667 287° West 370 426 36,000  Level Toronto Center
Wed 06:56:07 PM 43.3167 -80.2667 295° West 380 437 36,000  Level Toronto Center
Wed 06:57:07 PM 43.3500 -80.4333 285° West 380 437 36,000  Level Toronto Center
Wed 06:58:07 PM 43.3833 -80.5667 289° West 380 437 36,000  Level Toronto Center
Wed 06:59:07 PM 43.4000 -80.7167 279° West 380 437 36,000  Level Toronto Center
Wed 07:00:07 PM 43.3667 -80.8500 251° West 390 449 36,000  Level Toronto Center
Wed 07:01:07 PM 43.3333 -81.0167 255° West 390 449 36,000  Level Toronto Center
Wed 07:02:07 PM 43.3333 -81.1500 270° West 390 449 36,000  Level Toronto Center
Wed 07:03:07 PM 43.3000 -81.3000 253° West 390 449 36,000  Level Toronto Center
Wed 07:04:07 PM 43.2833 -81.4500 261° West 390 449 36,000  Level Toronto Center
Wed 07:05:07 PM 43.2667 -81.5833 260° West 390 449 36,000  Level Toronto Center
Wed 07:06:07 PM 43.2500 -81.7333 261° West 390 449 36,000  Level Toronto Center
Wed 07:07:07 PM 43.2333 -81.8833 261° West 390 449 36,000  Level Toronto Center
Wed 07:08:07 PM 43.2000 -82.0333 253° West 390 449 36,000  Level Toronto Center
Wed 07:09:07 PM 43.1833 -82.1667 260° West 400 460 36,000  Level Toronto Center
Wed 07:10:07 PM 43.1667 -82.3333 262° West 400 460 36,000  Level Toronto Center
Wed 07:11:07 PM 43.1500 -82.4833 261° West 400 460 36,000  Level Toronto Center
Wed 07:12:07 PM 43.1333 -82.6333 261° West 410 472 36,000 -54 Level Toronto Center
Wed 07:12:58 PM 43.1169 -82.7589 260° West 410 472 35,900 -811 Descending Cleveland Center
Wed 07:13:58 PM 43.0953 -82.9117 259° West 410 472 34,500 -1,400 Descending Cleveland Center
Wed 07:14:58 PM 43.0711 -83.0672 258° West 415 478 33,100 -1,250 Descending Cleveland Center
Wed 07:15:58 PM 43.0492 -83.2197 259° West 415 478 32,000 -550 Descending Cleveland Center
Wed 07:16:58 PM 43.0244 -83.3750 258° West 415 478 32,000  Level Cleveland Center
Wed 07:17:58 PM 43.0000 -83.5272 258° West 415 478 32,000  Level Cleveland Center
Wed 07:18:58 PM 42.9772 -83.6822 259° West 415 478 32,000  Level Cleveland Center
Wed 07:19:58 PM 42.9561 -83.8372 260° West 415 478 32,000  Level Cleveland Center
Wed 07:20:58 PM 42.9414 -83.9925 263° West 415 478 32,000  Level Cleveland Center
Wed 07:21:58 PM 42.9261 -84.1503 263° West 415 478 32,000  Level Cleveland Center
Wed 07:22:33 PM 42.9183 -84.2417 263° West 415 478 32,000  Level Chicago Center
Wed 07:23:35 PM 42.9033 -84.3983 263° West 416 479 32,000 -435 Level Chicago Center
Wed 07:24:37 PM 42.8872 -84.5547 262° West 418 481 31,100 -968 Descending Chicago Center
Wed 07:25:39 PM 42.8711 -84.7108 262° West 417 480 30,000 -532 Descending Chicago Center
Wed 07:26:41 PM 42.8511 -84.9008 262° West 423 487 30,000  Level Chicago Center
Wed 07:27:43 PM 42.8342 -85.0575 262° West 421 484 30,000  Level Chicago Center
Wed 07:28:45 PM 42.8103 -85.2147 258° West 424 488 30,000 -339 Level Chicago Center
Wed 07:29:47 PM 42.7819 -85.3739 256° West 431 496 29,300 -1,210 Descending Chicago Center
Wed 07:30:49 PM 42.7536 -85.5317 256° West 431 496 27,500 -1,824 Descending Chicago Center
Wed 07:31:52 PM 42.7250 -85.6867 256° West 423 487 25,500 -1,872 Descending Chicago Center
Wed 07:32:54 PM 42.6972 -85.8386 256° West 414 476 23,600 -1,935 Descending Chicago Center
Wed 07:33:56 PM 42.6636 -86.0183 256° West 407 468 21,500 -1,597 Descending Chicago Center
Wed 07:34:58 PM 42.6369 -86.1636 256° West 399 459 20,300 -871 Descending Chicago Center
Wed 07:36:00 PM 42.6092 -86.3142 256° West 406 467 19,700 -1,161 Descending Chicago Center
Wed 07:37:02 PM 42.5800 -86.4644 255° West 411 473 17,900 -1,839 Descending Chicago Center
Wed 07:38:04 PM 42.5503 -86.6153 255° West 413 475 15,900 -1,935 Descending Chicago Center
Wed 07:39:06 PM 42.5247 -86.7608 257° West 400 460 13,900 -1,790 Descending Chicago Center
Wed 07:40:08 PM 42.4989 -86.8908 255° West 362 417 12,200 -1,694 Descending Chicago Center
Wed 07:41:10 PM 42.4703 -87.0414 256° West 347 399 10,400 -1,065 Descending Chicago Center
Wed 07:42:12 PM 42.4425 -87.1619 253° West 337 388 10,000 -192 Descending Chicago Center
Wed 07:43:15 PM 42.4083 -87.2808 249° West 339 390 10,000  Level Chicago Center
Wed 07:44:17 PM 42.3722 -87.4122 250° West 340 391 10,000  Level Chicago Center
Wed 07:45:19 PM 42.3389 -87.5297 249° West 338 389 10,000 48 Level Chicago Center
Wed 07:46:21 PM 42.2678 -87.6100 220° Southwest 339 390 10,100 -435 Climbing Chicago Center
Wed 07:47:23 PM 42.2075 -87.6742 218° Southwest 287 330 9,100 -1,306 Descending Chicago Center
Wed 07:48:25 PM 42.1353 -87.7492 218° Southwest 276 318 7,400 -1,016 Descending Chicago Center
Wed 07:49:27 PM 42.0897 -87.8292 233° Southwest 290 334 7,000 -194 Descending Chicago Center
Wed 07:50:29 PM 42.0922 -87.9283 272° West 276 318 7,000  Level Chicago Center
Wed 07:51:31 PM 42.0919 -88.0156 270° West 247 284 7,000 -432 Level Chicago Center
Wed 07:52:34 PM 42.0908 -88.0992 269° West 231 266 6,100 -857 Descending Chicago Center

Login

Don't have an account? Register now (free) for customized features, flight alerts, and more!